Guadalupe, Arizona
Current Conditions -  °F | °C
As of 4:51 AM on Friday 24 Oct 2014 (Local Time) from KPHX Reporting Station
Clear Clear  
Wind Chill: 21°   Ceiling: Unl
Heat Index: 21°   Visibility: 10mi
Dew Point:   Wind: 0mph
Humidity: 46%   Direction: NA
Pressure: 29.99"   Gusts: NA
Location:  33.364°N, 111.931°W
Report Text: KPHX 241151Z 00000KT 10SM CLR 21/09 A2999 RMK AO2 SLP138 T02110089 10256 20200 53001
Loading
Personal Weather Stations






























Interactive Weather Map
Tropical Storm Tracking
New forecast layout! Learn more

10-Day Weather Forecast

Advertisements
Track Severe Weather on mobile